N32WC KIND-KTUL
Flight info
| Callsign | N32WC |
|---|---|
| Flight time | N/A |
| Altitude | 40000 |
| Route | ROCKY1 STL SGF VINTA3 |
| Aircraft | P180/L-SBDFGM3RWXY/LB1 |
Departure
| Time | 2026-04-29 17:33 |
|---|---|
| Airport | Indianapolis International Airport (KIND) |
Arrival
| Time | N/A |
|---|---|
| Airport | Tulsa International Airport (KTUL) |
| Time | Latitude | Longitude | Altitude | Speed | Heading |
|---|---|---|---|---|---|
| 2026-04-29 17:20 | 39.72625 | -86.27314 | 800 ft | 0 kts | 317° |
| 2026-04-29 17:26 | 39.72639 | -86.27331 | 800 ft | 5 kts | 316° |
| 2026-04-29 17:26 | 39.72649 | -86.27383 | 800 ft | 8 kts | 259° |
| 2026-04-29 17:26 | 39.72620 | -86.27448 | 800 ft | 9 kts | 210° |
| 2026-04-29 17:26 | 39.72562 | -86.27431 | 800 ft | 9 kts | 140° |
| 2026-04-29 17:27 | 39.72522 | -86.27380 | 800 ft | 8 kts | 135° |
| 2026-04-29 17:27 | 39.72479 | -86.27325 | 800 ft | 9 kts | 135° |
| 2026-04-29 17:27 | 39.72431 | -86.27262 | 800 ft | 10 kts | 135° |
| 2026-04-29 17:27 | 39.72379 | -86.27193 | 800 ft | 11 kts | 134° |
| 2026-04-29 17:28 | 39.72322 | -86.27117 | 800 ft | 12 kts | 134° |
| 2026-04-29 17:28 | 39.72277 | -86.27057 | 800 ft | 5 kts | 134° |
| 2026-04-29 17:28 | 39.72271 | -86.27049 | 800 ft | 0 kts | 134° |
| 2026-04-29 17:30 | 39.72248 | -86.27017 | 800 ft | 8 kts | 134° |
| 2026-04-29 17:30 | 39.72203 | -86.26958 | 800 ft | 9 kts | 134° |
| 2026-04-29 17:30 | 39.72174 | -86.26917 | 800 ft | 3 kts | 134° |
| 2026-04-29 17:30 | 39.72159 | -86.26901 | 800 ft | 2 kts | 146° |
| 2026-04-29 17:31 | 39.72142 | -86.26897 | 800 ft | 4 kts | 206° |
| 2026-04-29 17:31 | 39.72107 | -86.26951 | 800 ft | 10 kts | 223° |
| 2026-04-29 17:31 | 39.72050 | -86.27020 | 800 ft | 12 kts | 223° |
| 2026-04-29 17:31 | 39.72050 | -86.27084 | 800 ft | 8 kts | 316° |
| 2026-04-29 17:32 | 39.72103 | -86.27152 | 800 ft | 14 kts | 315° |
| 2026-04-29 17:32 | 39.72293 | -86.27399 | 800 ft | 80 kts | 314° |
| 2026-04-29 17:32 | 39.72814 | -86.28089 | 920 ft | 121 kts | 314° |
| 2026-04-29 17:32 | 39.73408 | -86.28916 | 1381 ft | 131 kts | 312° |
| 2026-04-29 17:33 | 39.74063 | -86.29855 | 1892 ft | 145 kts | 312° |
| 2026-04-29 17:33 | 39.74771 | -86.30873 | 2378 ft | 158 kts | 312° |
| 2026-04-29 17:33 | 39.75528 | -86.31969 | 2848 ft | 168 kts | 312° |
| 2026-04-29 17:33 | 39.76321 | -86.33124 | 3346 ft | 173 kts | 311° |
| 2026-04-29 17:34 | 39.76892 | -86.34495 | 3842 ft | 178 kts | 283° |
| 2026-04-29 17:34 | 39.77007 | -86.36085 | 4354 ft | 180 kts | 278° |
| 2026-04-29 17:34 | 39.77088 | -86.37705 | 4912 ft | 180 kts | 272° |
| 2026-04-29 17:34 | 39.76868 | -86.39300 | 5436 ft | 184 kts | 249° |
| 2026-04-29 17:35 | 39.76162 | -86.41364 | 6099 ft | 187 kts | 250° |
| 2026-04-29 17:35 | 39.75312 | -86.43945 | 6964 ft | 187 kts | 250° |
| 2026-04-29 17:35 | 39.74804 | -86.45509 | 7472 ft | 188 kts | 250° |
| 2026-04-29 17:36 | 39.74296 | -86.47078 | 7966 ft | 189 kts | 250° |
| 2026-04-29 17:36 | 39.73787 | -86.48652 | 8481 ft | 189 kts | 251° |
| 2026-04-29 17:36 | 39.73276 | -86.50236 | 8962 ft | 190 kts | 250° |
| 2026-04-29 17:36 | 39.72820 | -86.51842 | 9438 ft | 189 kts | 263° |
| 2026-04-29 17:37 | 39.72773 | -86.53517 | 9993 ft | 183 kts | 269° |
| 2026-04-29 17:37 | 39.72714 | -86.55162 | 10507 ft | 182 kts | 268° |
| 2026-04-29 17:37 | 39.72645 | -86.56773 | 11000 ft | 180 kts | 267° |
| 2026-04-29 17:37 | 39.72571 | -86.58374 | 11561 ft | 177 kts | 266° |
| 2026-04-29 17:38 | 39.72493 | -86.59977 | 12267 ft | 175 kts | 266° |
| 2026-04-29 17:38 | 39.72414 | -86.61550 | 12948 ft | 175 kts | 266° |
| 2026-04-29 17:38 | 39.72334 | -86.63118 | 13622 ft | 173 kts | 266° |
| 2026-04-29 17:38 | 39.72254 | -86.64680 | 14283 ft | 173 kts | 266° |
| 2026-04-29 17:39 | 39.72174 | -86.66231 | 14931 ft | 172 kts | 266° |
| 2026-04-29 17:39 | 39.72093 | -86.67778 | 15567 ft | 171 kts | 266° |
| 2026-04-29 17:39 | 39.72013 | -86.69322 | 16189 ft | 171 kts | 267° |
| 2026-04-29 17:39 | 39.71920 | -86.70957 | 16331 ft | 189 kts | 266° |
| 2026-04-29 17:40 | 39.71824 | -86.72738 | 16612 ft | 203 kts | 267° |
| 2026-04-29 17:40 | 39.71733 | -86.74551 | 17144 ft | 199 kts | 267° |
| 2026-04-29 17:40 | 39.71672 | -86.75728 | 17549 ft | 196 kts | 267° |
| 2026-04-29 17:40 | 39.71581 | -86.77477 | 18171 ft | 192 kts | 267° |
| 2026-04-29 17:41 | 39.71491 | -86.79180 | 18869 ft | 185 kts | 266° |
| 2026-04-29 17:41 | 39.71404 | -86.80823 | 19606 ft | 179 kts | 267° |
| 2026-04-29 17:41 | 39.71291 | -86.82925 | 20588 ft | 173 kts | 267° |
| 2026-04-29 17:41 | 39.71199 | -86.84545 | 20338 ft | 173 kts | 265° |
| 2026-04-29 17:42 | 39.71106 | -86.85601 | 20255 ft | 179 kts | 266° |
| 2026-04-29 17:42 | 39.71023 | -86.87762 | 20613 ft | 177 kts | 266° |
| 2026-04-29 17:42 | 39.70940 | -86.88873 | 20615 ft | 190 kts | 265° |
| 2026-04-29 17:42 | 39.70850 | -86.90591 | 20999 ft | 188 kts | 267° |
| 2026-04-29 17:43 | 39.70771 | -86.92261 | 21547 ft | 187 kts | 267° |
| 2026-04-29 17:43 | 39.70686 | -86.93948 | 22098 ft | 188 kts | 266° |
| 2026-04-29 17:43 | 39.70597 | -86.95652 | 22676 ft | 190 kts | 266° |
| 2026-04-29 17:43 | 39.70502 | -86.97422 | 22392 ft | 211 kts | 266° |
| 2026-04-29 17:44 | 39.70397 | -86.99257 | 22336 ft | 192 kts | 266° |
| 2026-04-29 17:44 | 39.70300 | -87.00921 | 22852 ft | 173 kts | 266° |
| 2026-04-29 17:44 | 39.70225 | -87.02366 | 23767 ft | 154 kts | 266° |
| 2026-04-29 17:44 | 39.70154 | -87.03707 | 24446 ft | 147 kts | 266° |
| 2026-04-29 17:45 | 39.70081 | -87.05060 | 25030 ft | 154 kts | 266° |
| 2026-04-29 17:45 | 39.70002 | -87.06501 | 25480 ft | 165 kts | 266° |
| 2026-04-29 17:45 | 39.69917 | -87.08038 | 25884 ft | 176 kts | 266° |
| 2026-04-29 17:45 | 39.69826 | -87.09667 | 26277 ft | 186 kts | 266° |
| 2026-04-29 17:46 | 39.69731 | -87.11365 | 26721 ft | 191 kts | 266° |
| 2026-04-29 17:46 | 39.69636 | -87.13070 | 27238 ft | 192 kts | 266° |
| 2026-04-29 17:46 | 39.69539 | -87.14799 | 27783 ft | 192 kts | 266° |
| 2026-04-29 17:46 | 39.69441 | -87.16535 | 28304 ft | 193 kts | 266° |
| 2026-04-29 17:47 | 39.69342 | -87.18283 | 28803 ft | 195 kts | 266° |
| 2026-04-29 17:47 | 39.69242 | -87.20048 | 29269 ft | 197 kts | 266° |
| 2026-04-29 17:47 | 39.69140 | -87.21827 | 29724 ft | 198 kts | 266° |
| 2026-04-29 17:47 | 39.69038 | -87.23621 | 30176 ft | 199 kts | 266° |
| 2026-04-29 17:48 | 39.68935 | -87.25422 | 30626 ft | 200 kts | 266° |
| 2026-04-29 17:48 | 39.68831 | -87.27226 | 31073 ft | 201 kts | 266° |
| 2026-04-29 17:48 | 39.68727 | -87.29037 | 31491 ft | 202 kts | 266° |
| 2026-04-29 17:48 | 39.68622 | -87.30863 | 31877 ft | 203 kts | 266° |
| 2026-04-29 17:49 | 39.68515 | -87.32699 | 32254 ft | 205 kts | 266° |
| 2026-04-29 17:49 | 39.68408 | -87.34548 | 32630 ft | 205 kts | 266° |
| 2026-04-29 17:49 | 39.68302 | -87.36377 | 33000 ft | 206 kts | 267° |
| 2026-04-29 17:49 | 39.68193 | -87.38232 | 33375 ft | 206 kts | 267° |
| 2026-04-29 17:50 | 39.68085 | -87.40081 | 33748 ft | 206 kts | 267° |
| 2026-04-29 17:50 | 39.67977 | -87.41932 | 34122 ft | 205 kts | 267° |
| 2026-04-29 17:50 | 39.67868 | -87.43780 | 34472 ft | 206 kts | 267° |
| 2026-04-29 17:50 | 39.67758 | -87.45638 | 34801 ft | 207 kts | 267° |
| 2026-04-29 17:51 | 39.67648 | -87.47497 | 35126 ft | 207 kts | 267° |
| 2026-04-29 17:51 | 39.67538 | -87.49361 | 35445 ft | 207 kts | 267° |
| 2026-04-29 17:51 | 39.67426 | -87.51234 | 35746 ft | 208 kts | 266° |
| 2026-04-29 17:51 | 39.67315 | -87.53109 | 36026 ft | 208 kts | 266° |
| 2026-04-29 17:52 | 39.67193 | -87.54984 | 36301 ft | 209 kts | 264° |
| 2026-04-29 17:52 | 39.67031 | -87.56214 | 36484 ft | 209 kts | 262° |
| 2026-04-29 17:52 | 39.66571 | -87.58675 | 36841 ft | 210 kts | 259° |
| 2026-04-29 17:52 | 39.66168 | -87.60477 | 37090 ft | 210 kts | 258° |
| 2026-04-29 17:53 | 39.65731 | -87.62291 | 37339 ft | 210 kts | 257° |
| 2026-04-29 17:53 | 39.65272 | -87.64123 | 37584 ft | 210 kts | 257° |
| 2026-04-29 17:53 | 39.64810 | -87.65925 | 37792 ft | 211 kts | 256° |
| 2026-04-29 17:53 | 39.64342 | -87.67728 | 37993 ft | 211 kts | 256° |
| 2026-04-29 17:54 | 39.63869 | -87.69535 | 38192 ft | 211 kts | 256° |
| 2026-04-29 17:54 | 39.63395 | -87.71338 | 38389 ft | 211 kts | 256° |
| 2026-04-29 17:54 | 39.62920 | -87.73140 | 38568 ft | 211 kts | 256° |
| 2026-04-29 17:54 | 39.62446 | -87.74934 | 38739 ft | 210 kts | 256° |
| 2026-04-29 17:55 | 39.61971 | -87.76730 | 38876 ft | 211 kts | 256° |
| 2026-04-29 17:55 | 39.61494 | -87.78530 | 39003 ft | 211 kts | 256° |
| 2026-04-29 17:55 | 39.61016 | -87.80335 | 39129 ft | 212 kts | 256° |
| 2026-04-29 17:55 | 39.60537 | -87.82140 | 39252 ft | 212 kts | 256° |
| 2026-04-29 17:56 | 39.60062 | -87.83929 | 39375 ft | 211 kts | 256° |
| 2026-04-29 17:56 | 39.59579 | -87.85745 | 39498 ft | 211 kts | 256° |
| 2026-04-29 17:56 | 39.59101 | -87.87541 | 39621 ft | 210 kts | 256° |
| 2026-04-29 17:56 | 39.58626 | -87.89326 | 39743 ft | 209 kts | 256° |
| 2026-04-29 17:57 | 39.58153 | -87.91099 | 39865 ft | 207 kts | 256° |
| 2026-04-29 17:57 | 39.57689 | -87.92842 | 39972 ft | 207 kts | 256° |
| 2026-04-29 17:57 | 39.57218 | -87.94609 | 40026 ft | 209 kts | 256° |
| 2026-04-29 17:57 | 39.56740 | -87.96402 | 40040 ft | 212 kts | 256° |
| 2026-04-29 17:58 | 39.56254 | -87.98222 | 40044 ft | 215 kts | 255° |
| 2026-04-29 17:58 | 39.55760 | -88.00070 | 40046 ft | 219 kts | 255° |
| 2026-04-29 17:58 | 39.55258 | -88.01946 | 40047 ft | 222 kts | 255° |
| 2026-04-29 17:58 | 39.54750 | -88.03843 | 40047 ft | 224 kts | 255° |
| 2026-04-29 17:59 | 39.54236 | -88.05762 | 40047 ft | 227 kts | 255° |
| 2026-04-29 17:59 | 39.53716 | -88.07701 | 40048 ft | 228 kts | 255° |
| 2026-04-29 17:59 | 39.53193 | -88.09649 | 40048 ft | 230 kts | 255° |
| 2026-04-29 17:59 | 39.52666 | -88.11612 | 40049 ft | 231 kts | 255° |
| 2026-04-29 18:00 | 39.52136 | -88.13586 | 40049 ft | 232 kts | 256° |
| 2026-04-29 18:00 | 39.51604 | -88.15563 | 40049 ft | 233 kts | 255° |
| 2026-04-29 18:00 | 39.51069 | -88.17551 | 40050 ft | 234 kts | 255° |
| 2026-04-29 18:00 | 39.50533 | -88.19542 | 40050 ft | 234 kts | 255° |
| 2026-04-29 18:01 | 39.49994 | -88.21538 | 40050 ft | 235 kts | 255° |
| 2026-04-29 18:01 | 39.49454 | -88.23540 | 40051 ft | 235 kts | 255° |
| 2026-04-29 18:01 | 39.48912 | -88.25546 | 40051 ft | 236 kts | 255° |
| 2026-04-29 18:01 | 39.48377 | -88.27527 | 40051 ft | 236 kts | 255° |
| 2026-04-29 18:02 | 39.47832 | -88.29541 | 40051 ft | 237 kts | 255° |
| 2026-04-29 18:02 | 39.47289 | -88.31550 | 40051 ft | 237 kts | 255° |
| 2026-04-29 18:02 | 39.46743 | -88.33564 | 40051 ft | 237 kts | 255° |
| 2026-04-29 18:02 | 39.46197 | -88.35578 | 40051 ft | 237 kts | 255° |
| 2026-04-29 18:03 | 39.45650 | -88.37594 | 40052 ft | 237 kts | 255° |
| 2026-04-29 18:03 | 39.45102 | -88.39611 | 40053 ft | 238 kts | 255° |
| 2026-04-29 18:03 | 39.44555 | -88.41626 | 40054 ft | 238 kts | 255° |
| 2026-04-29 18:03 | 39.44006 | -88.43644 | 40055 ft | 238 kts | 255° |
| 2026-04-29 18:04 | 39.43457 | -88.45659 | 40056 ft | 238 kts | 255° |
| 2026-04-29 18:04 | 39.42908 | -88.47676 | 40058 ft | 238 kts | 255° |
| 2026-04-29 18:04 | 39.42358 | -88.49692 | 40060 ft | 238 kts | 255° |
| 2026-04-29 18:04 | 39.41808 | -88.51707 | 40061 ft | 238 kts | 255° |
| 2026-04-29 18:05 | 39.41258 | -88.53725 | 40062 ft | 238 kts | 255° |
| 2026-04-29 18:05 | 39.40706 | -88.55742 | 40064 ft | 238 kts | 255° |
| 2026-04-29 18:05 | 39.40155 | -88.57758 | 40066 ft | 237 kts | 255° |
| 2026-04-29 18:05 | 39.39605 | -88.59767 | 40067 ft | 237 kts | 255° |
| 2026-04-29 18:06 | 39.39060 | -88.61758 | 40068 ft | 237 kts | 255° |
| 2026-04-29 18:06 | 39.38508 | -88.63769 | 40070 ft | 237 kts | 255° |
| 2026-04-29 18:06 | 39.37957 | -88.65778 | 40070 ft | 237 kts | 256° |
| 2026-04-29 18:06 | 39.37405 | -88.67791 | 40072 ft | 237 kts | 256° |
| 2026-04-29 18:07 | 39.36850 | -88.69808 | 40073 ft | 237 kts | 256° |
| 2026-04-29 18:07 | 39.36298 | -88.71817 | 40074 ft | 237 kts | 256° |
| 2026-04-29 18:07 | 39.35745 | -88.73825 | 40073 ft | 237 kts | 256° |
| 2026-04-29 18:07 | 39.35191 | -88.75835 | 40074 ft | 237 kts | 256° |
| 2026-04-29 18:08 | 39.34637 | -88.77847 | 40075 ft | 237 kts | 256° |
| 2026-04-29 18:08 | 39.34082 | -88.79858 | 40076 ft | 237 kts | 256° |
| 2026-04-29 18:08 | 39.33528 | -88.81867 | 40077 ft | 237 kts | 256° |
| 2026-04-29 18:08 | 39.32979 | -88.83852 | 40077 ft | 237 kts | 256° |
| 2026-04-29 18:09 | 39.32416 | -88.85887 | 40079 ft | 237 kts | 256° |
| 2026-04-29 18:09 | 39.31869 | -88.87866 | 40086 ft | 237 kts | 256° |
| 2026-04-29 18:09 | 39.31312 | -88.89875 | 40089 ft | 237 kts | 256° |
| 2026-04-29 18:09 | 39.30756 | -88.91883 | 40091 ft | 237 kts | 256° |
| 2026-04-29 18:10 | 39.30200 | -88.93887 | 40092 ft | 237 kts | 256° |
| 2026-04-29 18:10 | 39.29643 | -88.95893 | 40092 ft | 237 kts | 256° |
| 2026-04-29 18:10 | 39.29087 | -88.97894 | 40093 ft | 237 kts | 256° |
| 2026-04-29 18:10 | 39.28530 | -88.99897 | 40096 ft | 237 kts | 256° |
| 2026-04-29 18:11 | 39.27974 | -89.01896 | 40098 ft | 237 kts | 256° |
| 2026-04-29 18:11 | 39.27417 | -89.03897 | 40099 ft | 237 kts | 256° |
| 2026-04-29 18:11 | 39.26859 | -89.05898 | 40100 ft | 237 kts | 256° |
| 2026-04-29 18:11 | 39.26294 | -89.07926 | 40100 ft | 237 kts | 256° |
| 2026-04-29 18:12 | 39.25736 | -89.09925 | 40101 ft | 237 kts | 256° |
| 2026-04-29 18:12 | 39.25177 | -89.11924 | 40102 ft | 237 kts | 256° |
| 2026-04-29 18:12 | 39.24618 | -89.13924 | 40103 ft | 237 kts | 256° |
| 2026-04-29 18:12 | 39.24060 | -89.15920 | 40105 ft | 237 kts | 256° |
| 2026-04-29 18:13 | 39.23501 | -89.17916 | 40106 ft | 237 kts | 256° |
| 2026-04-29 18:13 | 39.22941 | -89.19913 | 40107 ft | 237 kts | 256° |
| 2026-04-29 18:13 | 39.22381 | -89.21914 | 40108 ft | 237 kts | 256° |
| 2026-04-29 18:13 | 39.21822 | -89.23906 | 40109 ft | 238 kts | 256° |
| 2026-04-29 18:14 | 39.21252 | -89.25935 | 40110 ft | 239 kts | 256° |
| 2026-04-29 18:14 | 39.20686 | -89.27949 | 40111 ft | 239 kts | 256° |
| 2026-04-29 18:14 | 39.20119 | -89.29964 | 40112 ft | 239 kts | 256° |
| 2026-04-29 18:14 | 39.19551 | -89.31982 | 40113 ft | 240 kts | 256° |
| 2026-04-29 18:15 | 39.18982 | -89.34002 | 40114 ft | 240 kts | 256° |
| 2026-04-29 18:15 | 39.18412 | -89.36021 | 40116 ft | 240 kts | 256° |
| 2026-04-29 18:15 | 39.17842 | -89.38043 | 40118 ft | 240 kts | 256° |
| 2026-04-29 18:15 | 39.17271 | -89.40066 | 40119 ft | 240 kts | 256° |
| 2026-04-29 18:16 | 39.16706 | -89.42065 | 40120 ft | 240 kts | 256° |
| 2026-04-29 18:16 | 39.16133 | -89.44091 | 40122 ft | 240 kts | 256° |
| 2026-04-29 18:16 | 39.15561 | -89.46113 | 40124 ft | 240 kts | 256° |
| 2026-04-29 18:16 | 39.14987 | -89.48137 | 40125 ft | 241 kts | 256° |
| 2026-04-29 18:17 | 39.14412 | -89.50166 | 40126 ft | 241 kts | 256° |
| 2026-04-29 18:17 | 39.13837 | -89.52194 | 40127 ft | 241 kts | 256° |
| 2026-04-29 18:17 | 39.13261 | -89.54220 | 40128 ft | 241 kts | 256° |
| 2026-04-29 18:17 | 39.12687 | -89.56243 | 40129 ft | 241 kts | 256° |
| 2026-04-29 18:18 | 39.12111 | -89.58269 | 40129 ft | 241 kts | 256° |
| 2026-04-29 18:18 | 39.11534 | -89.60296 | 40129 ft | 241 kts | 256° |
| 2026-04-29 18:18 | 39.10958 | -89.62319 | 40129 ft | 241 kts | 256° |
| 2026-04-29 18:18 | 39.10380 | -89.64345 | 40129 ft | 241 kts | 256° |
| 2026-04-29 18:19 | 39.09803 | -89.66367 | 40130 ft | 241 kts | 256° |
| 2026-04-29 18:19 | 39.09225 | -89.68394 | 40130 ft | 241 kts | 256° |
| 2026-04-29 18:19 | 39.08646 | -89.70419 | 40130 ft | 241 kts | 256° |
| 2026-04-29 18:19 | 39.08068 | -89.72442 | 40130 ft | 241 kts | 256° |
| 2026-04-29 18:20 | 39.07489 | -89.74464 | 40130 ft | 241 kts | 256° |
| 2026-04-29 18:20 | 39.06918 | -89.76458 | 40130 ft | 241 kts | 256° |
| 2026-04-29 18:20 | 39.06338 | -89.78482 | 40130 ft | 241 kts | 256° |
| 2026-04-29 18:20 | 39.05758 | -89.80505 | 40129 ft | 241 kts | 256° |
| 2026-04-29 18:21 | 39.05178 | -89.82528 | 40129 ft | 241 kts | 256° |
| 2026-04-29 18:21 | 39.04794 | -89.83864 | 40129 ft | 241 kts | 256° |
| 2026-04-29 18:21 | 39.04017 | -89.86568 | 40128 ft | 241 kts | 256° |
| 2026-04-29 18:21 | 39.03436 | -89.88586 | 40128 ft | 241 kts | 256° |
| 2026-04-29 18:22 | 39.03052 | -89.89922 | 40128 ft | 240 kts | 256° |
| 2026-04-29 18:22 | 39.02274 | -89.92621 | 40127 ft | 240 kts | 256° |
| 2026-04-29 18:22 | 39.01694 | -89.94635 | 40127 ft | 240 kts | 256° |
| 2026-04-29 18:22 | 39.01308 | -89.95974 | 40128 ft | 240 kts | 256° |
| 2026-04-29 18:23 | 39.00537 | -89.98642 | 40128 ft | 240 kts | 256° |
| 2026-04-29 18:23 | 38.99956 | -90.00653 | 40129 ft | 240 kts | 256° |
| 2026-04-29 18:23 | 38.99563 | -90.02011 | 40129 ft | 240 kts | 256° |
| 2026-04-29 18:23 | 38.98981 | -90.04025 | 40129 ft | 240 kts | 256° |
| 2026-04-29 18:24 | 38.98400 | -90.06031 | 40129 ft | 240 kts | 256° |
| 2026-04-29 18:24 | 38.97825 | -90.08014 | 40129 ft | 239 kts | 256° |
| 2026-04-29 18:24 | 38.97244 | -90.10016 | 40129 ft | 239 kts | 256° |
| 2026-04-29 18:24 | 38.96663 | -90.12018 | 40129 ft | 239 kts | 256° |
| 2026-04-29 18:25 | 38.96082 | -90.14021 | 40129 ft | 239 kts | 256° |
| 2026-04-29 18:25 | 38.95503 | -90.16013 | 40128 ft | 239 kts | 256° |
| 2026-04-29 18:25 | 38.94920 | -90.18017 | 40128 ft | 239 kts | 256° |
| 2026-04-29 18:25 | 38.94339 | -90.20013 | 40128 ft | 239 kts | 256° |
| 2026-04-29 18:26 | 38.93757 | -90.22009 | 40127 ft | 238 kts | 256° |
| 2026-04-29 18:26 | 38.93176 | -90.24004 | 40126 ft | 238 kts | 256° |
| 2026-04-29 18:26 | 38.92594 | -90.25996 | 40126 ft | 238 kts | 256° |
| 2026-04-29 18:26 | 38.92012 | -90.27990 | 40125 ft | 238 kts | 256° |
| 2026-04-29 18:27 | 38.91431 | -90.29981 | 40125 ft | 238 kts | 256° |
| 2026-04-29 18:27 | 38.90849 | -90.31971 | 40124 ft | 238 kts | 256° |
| 2026-04-29 18:27 | 38.90267 | -90.33959 | 40124 ft | 238 kts | 256° |
| 2026-04-29 18:27 | 38.89684 | -90.35949 | 40123 ft | 238 kts | 256° |
| 2026-04-29 18:28 | 38.89102 | -90.37937 | 40122 ft | 238 kts | 256° |
| 2026-04-29 18:28 | 38.88519 | -90.39923 | 40122 ft | 238 kts | 256° |
| 2026-04-29 18:28 | 38.87936 | -90.41909 | 40122 ft | 238 kts | 256° |
| 2026-04-29 18:28 | 38.87354 | -90.43892 | 40122 ft | 237 kts | 256° |
| 2026-04-29 18:29 | 38.86770 | -90.45876 | 40122 ft | 237 kts | 256° |
| 2026-04-29 18:29 | 38.86121 | -90.47805 | 40123 ft | 242 kts | 250° |
| 2026-04-29 18:29 | 38.85262 | -90.49672 | 40125 ft | 244 kts | 248° |
| 2026-04-29 18:29 | 38.84367 | -90.51522 | 40125 ft | 244 kts | 248° |
| 2026-04-29 18:30 | 38.83459 | -90.53364 | 40125 ft | 244 kts | 247° |
| 2026-04-29 18:30 | 38.82530 | -90.55227 | 40126 ft | 244 kts | 247° |
| 2026-04-29 18:30 | 38.81610 | -90.57057 | 40126 ft | 244 kts | 247° |
| 2026-04-29 18:30 | 38.80688 | -90.58886 | 40127 ft | 244 kts | 247° |
| 2026-04-29 18:31 | 38.79762 | -90.60718 | 40127 ft | 244 kts | 247° |
| 2026-04-29 18:31 | 38.78837 | -90.62546 | 40128 ft | 244 kts | 247° |
| 2026-04-29 18:31 | 38.77912 | -90.64371 | 40129 ft | 244 kts | 247° |
| 2026-04-29 18:31 | 38.76986 | -90.66196 | 40130 ft | 244 kts | 247° |
| 2026-04-29 18:32 | 38.76059 | -90.68021 | 40131 ft | 244 kts | 247° |
| 2026-04-29 18:32 | 38.74208 | -90.71664 | 40132 ft | 244 kts | 247° |
| 2026-04-29 18:32 | 38.73282 | -90.73484 | 40132 ft | 244 kts | 247° |
| 2026-04-29 18:33 | 38.72356 | -90.75303 | 40132 ft | 244 kts | 247° |
| 2026-04-29 18:33 | 38.71431 | -90.77120 | 40133 ft | 244 kts | 247° |
| 2026-04-29 18:33 | 38.70516 | -90.78915 | 40134 ft | 244 kts | 247° |
| 2026-04-29 18:33 | 38.69591 | -90.80731 | 40135 ft | 244 kts | 247° |
| 2026-04-29 18:34 | 38.68665 | -90.82545 | 40137 ft | 243 kts | 247° |
| 2026-04-29 18:34 | 38.68040 | -90.83771 | 40138 ft | 243 kts | 247° |
| 2026-04-29 18:34 | 38.66814 | -90.86171 | 40140 ft | 243 kts | 247° |
| 2026-04-29 18:34 | 38.65889 | -90.87982 | 40142 ft | 243 kts | 247° |
| 2026-04-29 18:35 | 38.64964 | -90.89790 | 40144 ft | 243 kts | 247° |
| 2026-04-29 18:35 | 38.64038 | -90.91602 | 40146 ft | 243 kts | 247° |
| 2026-04-29 18:35 | 38.63111 | -90.93411 | 40147 ft | 243 kts | 247° |
| 2026-04-29 18:35 | 38.62186 | -90.95219 | 40149 ft | 243 kts | 247° |
| 2026-04-29 18:36 | 38.61260 | -90.97025 | 40149 ft | 243 kts | 247° |
| 2026-04-29 18:36 | 38.60333 | -90.98832 | 40150 ft | 243 kts | 247° |
| 2026-04-29 18:36 | 38.59406 | -91.00640 | 40150 ft | 243 kts | 247° |
| 2026-04-29 18:36 | 38.58478 | -91.02449 | 40151 ft | 243 kts | 247° |
| 2026-04-29 18:37 | 38.57549 | -91.04258 | 40150 ft | 243 kts | 247° |
| 2026-04-29 18:37 | 38.56621 | -91.06063 | 40151 ft | 243 kts | 247° |
| 2026-04-29 18:37 | 38.55693 | -91.07868 | 40151 ft | 243 kts | 247° |
| 2026-04-29 18:37 | 38.54767 | -91.09669 | 40152 ft | 243 kts | 247° |
| 2026-04-29 18:38 | 38.53851 | -91.11448 | 40152 ft | 243 kts | 247° |
| 2026-04-29 18:38 | 38.52922 | -91.13251 | 40154 ft | 243 kts | 247° |
| 2026-04-29 18:38 | 38.51995 | -91.15050 | 40155 ft | 242 kts | 247° |
| 2026-04-29 18:38 | 38.51068 | -91.16850 | 40156 ft | 242 kts | 247° |
| 2026-04-29 18:39 | 38.50140 | -91.18647 | 40159 ft | 242 kts | 247° |
| 2026-04-29 18:39 | 38.49213 | -91.20443 | 40161 ft | 242 kts | 247° |
| 2026-04-29 18:39 | 38.48287 | -91.22237 | 40163 ft | 242 kts | 247° |
| 2026-04-29 18:39 | 38.47361 | -91.24029 | 40164 ft | 242 kts | 247° |
| 2026-04-29 18:40 | 38.46435 | -91.25820 | 40165 ft | 242 kts | 247° |
| 2026-04-29 18:40 | 38.45508 | -91.27613 | 40167 ft | 242 kts | 247° |
| 2026-04-29 18:40 | 38.44582 | -91.29402 | 40169 ft | 241 kts | 247° |
| 2026-04-29 18:40 | 38.43657 | -91.31187 | 40170 ft | 241 kts | 247° |
| 2026-04-29 18:41 | 38.40883 | -91.36539 | 40172 ft | 241 kts | 247° |
| 2026-04-29 18:41 | 38.39958 | -91.38321 | 40173 ft | 241 kts | 247° |
| 2026-04-29 18:42 | 38.39035 | -91.40098 | 40173 ft | 241 kts | 247° |
| 2026-04-29 18:42 | 38.38111 | -91.41876 | 40174 ft | 240 kts | 247° |
| 2026-04-29 18:42 | 38.37188 | -91.43652 | 40174 ft | 240 kts | 247° |
| 2026-04-29 18:42 | 38.36265 | -91.45426 | 40175 ft | 240 kts | 247° |
| 2026-04-29 18:43 | 38.35342 | -91.47200 | 40175 ft | 240 kts | 247° |
| 2026-04-29 18:43 | 38.34421 | -91.48969 | 40176 ft | 240 kts | 248° |
| 2026-04-29 18:43 | 38.33509 | -91.50719 | 40176 ft | 240 kts | 248° |
| 2026-04-29 18:43 | 38.32587 | -91.52487 | 40176 ft | 239 kts | 247° |
| 2026-04-29 18:44 | 38.31664 | -91.54257 | 40177 ft | 239 kts | 248° |
| 2026-04-29 18:44 | 38.30745 | -91.56019 | 40177 ft | 239 kts | 248° |
| 2026-04-29 18:44 | 38.29825 | -91.57781 | 40177 ft | 239 kts | 248° |
| 2026-04-29 18:44 | 38.28905 | -91.59543 | 40177 ft | 239 kts | 248° |
| 2026-04-29 18:45 | 38.27984 | -91.61304 | 40178 ft | 238 kts | 248° |
| 2026-04-29 18:45 | 38.27067 | -91.63058 | 40178 ft | 238 kts | 248° |
| 2026-04-29 18:45 | 38.26149 | -91.64813 | 40178 ft | 238 kts | 248° |
| 2026-04-29 18:45 | 38.25230 | -91.66567 | 40179 ft | 238 kts | 248° |
| 2026-04-29 18:46 | 38.24325 | -91.68295 | 40179 ft | 238 kts | 248° |
| 2026-04-29 18:46 | 38.23407 | -91.70046 | 40180 ft | 238 kts | 248° |
| 2026-04-29 18:46 | 38.22490 | -91.71795 | 40180 ft | 237 kts | 248° |
| 2026-04-29 18:46 | 38.21573 | -91.73544 | 40180 ft | 237 kts | 248° |
| 2026-04-29 18:47 | 38.20657 | -91.75289 | 40180 ft | 237 kts | 248° |
| 2026-04-29 18:47 | 38.19741 | -91.77033 | 40180 ft | 237 kts | 248° |
| 2026-04-29 18:47 | 38.18824 | -91.78778 | 40180 ft | 237 kts | 248° |
| 2026-04-29 18:47 | 38.17909 | -91.80518 | 40180 ft | 237 kts | 248° |
| 2026-04-29 18:48 | 38.16993 | -91.82258 | 40180 ft | 237 kts | 248° |
| 2026-04-29 18:48 | 38.16077 | -91.84000 | 40180 ft | 237 kts | 248° |
| 2026-04-29 18:48 | 38.15179 | -91.85705 | 40180 ft | 237 kts | 248° |
| 2026-04-29 18:48 | 38.14247 | -91.87474 | 40179 ft | 237 kts | 248° |
| 2026-04-29 18:49 | 38.13331 | -91.89210 | 40179 ft | 236 kts | 248° |
| 2026-04-29 18:49 | 38.12418 | -91.90944 | 40178 ft | 236 kts | 248° |
| 2026-04-29 18:49 | 38.11602 | -91.92729 | 40178 ft | 233 kts | 250° |
| 2026-04-29 18:49 | 38.10726 | -91.94483 | 40178 ft | 236 kts | 248° |
| 2026-04-29 18:50 | 38.09809 | -91.96215 | 40176 ft | 236 kts | 248° |
| 2026-04-29 18:50 | 38.08891 | -91.97946 | 40175 ft | 236 kts | 248° |
| 2026-04-29 18:50 | 38.07973 | -91.99677 | 40174 ft | 236 kts | 248° |
| 2026-04-29 18:50 | 38.07054 | -92.01410 | 40174 ft | 236 kts | 248° |
| 2026-04-29 18:51 | 38.06136 | -92.03138 | 40174 ft | 236 kts | 248° |
| 2026-04-29 18:51 | 38.05219 | -92.04866 | 40173 ft | 236 kts | 248° |
| 2026-04-29 18:51 | 38.04299 | -92.06597 | 40173 ft | 236 kts | 248° |
| 2026-04-29 18:51 | 38.03379 | -92.08328 | 40172 ft | 236 kts | 248° |
| 2026-04-29 18:52 | 38.02502 | -92.10047 | 40172 ft | 233 kts | 251° |
| 2026-04-29 18:52 | 38.01687 | -92.11833 | 40172 ft | 233 kts | 250° |
| 2026-04-29 18:52 | 38.00881 | -92.13614 | 40172 ft | 233 kts | 250° |
| 2026-04-29 18:52 | 38.00074 | -92.15392 | 40172 ft | 233 kts | 250° |
| 2026-04-29 18:53 | 37.99264 | -92.17173 | 40172 ft | 233 kts | 250° |
| 2026-04-29 18:53 | 37.98454 | -92.18952 | 40172 ft | 233 kts | 250° |
| 2026-04-29 18:53 | 37.97644 | -92.20728 | 40172 ft | 233 kts | 250° |
| 2026-04-29 18:53 | 37.96833 | -92.22505 | 40172 ft | 233 kts | 250° |
| 2026-04-29 18:54 | 37.96020 | -92.24284 | 40171 ft | 233 kts | 250° |
| 2026-04-29 18:54 | 37.95206 | -92.26065 | 40170 ft | 233 kts | 250° |
| 2026-04-29 18:54 | 37.94395 | -92.27840 | 40170 ft | 233 kts | 250° |
| 2026-04-29 18:54 | 37.93581 | -92.29618 | 40171 ft | 233 kts | 250° |
| 2026-04-29 18:55 | 37.92768 | -92.31394 | 40171 ft | 233 kts | 250° |
| 2026-04-29 18:55 | 37.91953 | -92.33174 | 40172 ft | 233 kts | 250° |
| 2026-04-29 18:55 | 37.91139 | -92.34946 | 40172 ft | 233 kts | 250° |
| 2026-04-29 18:55 | 37.90322 | -92.36718 | 40172 ft | 233 kts | 250° |
| 2026-04-29 18:56 | 37.89504 | -92.38494 | 40172 ft | 233 kts | 250° |
| 2026-04-29 18:56 | 37.88685 | -92.40268 | 40172 ft | 233 kts | 250° |
| 2026-04-29 18:56 | 37.87869 | -92.42036 | 40172 ft | 233 kts | 250° |
| 2026-04-29 18:56 | 37.87051 | -92.43805 | 40172 ft | 233 kts | 250° |
| 2026-04-29 18:57 | 37.86233 | -92.45574 | 40172 ft | 233 kts | 250° |
| 2026-04-29 18:57 | 37.85415 | -92.47341 | 40171 ft | 233 kts | 250° |
| 2026-04-29 18:57 | 37.84596 | -92.49109 | 40166 ft | 233 kts | 250° |
| 2026-04-29 18:57 | 37.83776 | -92.50880 | 40163 ft | 233 kts | 250° |
| 2026-04-29 18:58 | 37.83072 | -92.52399 | 40163 ft | 233 kts | 250° |
| 2026-04-29 18:58 | 37.82251 | -92.54169 | 40164 ft | 233 kts | 250° |
| 2026-04-29 18:58 | 37.81431 | -92.55937 | 40167 ft | 233 kts | 250° |
| 2026-04-29 18:58 | 37.80611 | -92.57704 | 40167 ft | 233 kts | 250° |
| 2026-04-29 18:59 | 37.79801 | -92.59446 | 40166 ft | 233 kts | 250° |
| 2026-04-29 18:59 | 37.78982 | -92.61209 | 40165 ft | 233 kts | 250° |
| 2026-04-29 18:59 | 37.78161 | -92.62974 | 40164 ft | 233 kts | 250° |
| 2026-04-29 18:59 | 37.77341 | -92.64736 | 40163 ft | 233 kts | 250° |
| 2026-04-29 19:00 | 37.76521 | -92.66499 | 40161 ft | 233 kts | 250° |
| 2026-04-29 19:00 | 37.75699 | -92.68264 | 40160 ft | 233 kts | 250° |
| 2026-04-29 19:00 | 37.74878 | -92.70025 | 40158 ft | 233 kts | 250° |
| 2026-04-29 19:00 | 37.74056 | -92.71788 | 40156 ft | 233 kts | 250° |
| 2026-04-29 19:01 | 37.73234 | -92.73549 | 40156 ft | 233 kts | 250° |
| 2026-04-29 19:01 | 37.72410 | -92.75314 | 40155 ft | 232 kts | 250° |
| 2026-04-29 19:01 | 37.71589 | -92.77072 | 40155 ft | 232 kts | 250° |
| 2026-04-29 19:01 | 37.70767 | -92.78831 | 40155 ft | 232 kts | 250° |
| 2026-04-29 19:02 | 37.69946 | -92.80588 | 40155 ft | 232 kts | 250° |
| 2026-04-29 19:02 | 37.69401 | -92.81752 | 40155 ft | 232 kts | 250° |
| 2026-04-29 19:02 | 37.68547 | -92.83577 | 40155 ft | 232 kts | 250° |
| 2026-04-29 19:02 | 37.67726 | -92.85331 | 40155 ft | 232 kts | 250° |
| 2026-04-29 19:03 | 37.66903 | -92.87087 | 40156 ft | 232 kts | 250° |
| 2026-04-29 19:03 | 37.66083 | -92.88838 | 40156 ft | 232 kts | 250° |
| 2026-04-29 19:03 | 37.65260 | -92.90593 | 40156 ft | 232 kts | 250° |
| 2026-04-29 19:03 | 37.64437 | -92.92346 | 40155 ft | 232 kts | 250° |
| 2026-04-29 19:04 | 37.63615 | -92.94098 | 40151 ft | 232 kts | 250° |
| 2026-04-29 19:04 | 37.62801 | -92.95829 | 40149 ft | 232 kts | 250° |
| 2026-04-29 19:04 | 37.61977 | -92.97583 | 40148 ft | 232 kts | 250° |
| 2026-04-29 19:04 | 37.61152 | -92.99337 | 40148 ft | 232 kts | 250° |
| 2026-04-29 19:05 | 37.60320 | -93.01105 | 40147 ft | 232 kts | 250° |
| 2026-04-29 19:05 | 37.59496 | -93.02855 | 40147 ft | 232 kts | 250° |
| 2026-04-29 19:05 | 37.58680 | -93.04587 | 40146 ft | 232 kts | 250° |
| 2026-04-29 19:05 | 37.57857 | -93.06335 | 40145 ft | 232 kts | 250° |
| 2026-04-29 19:06 | 37.57033 | -93.08081 | 40144 ft | 232 kts | 250° |
| 2026-04-29 19:06 | 37.56210 | -93.09826 | 40144 ft | 232 kts | 250° |
| 2026-04-29 19:06 | 37.54562 | -93.13317 | 40142 ft | 232 kts | 250° |
| 2026-04-29 19:07 | 37.53737 | -93.15063 | 40142 ft | 232 kts | 250° |
| 2026-04-29 19:07 | 37.53191 | -93.16219 | 40141 ft | 232 kts | 250° |
| 2026-04-29 19:07 | 37.52087 | -93.18551 | 40140 ft | 232 kts | 250° |
| 2026-04-29 19:07 | 37.51262 | -93.20295 | 40140 ft | 232 kts | 250° |
| 2026-04-29 19:08 | 37.50437 | -93.22038 | 40139 ft | 232 kts | 250° |
| 2026-04-29 19:08 | 37.49621 | -93.23760 | 40139 ft | 232 kts | 250° |
| 2026-04-29 19:08 | 37.48785 | -93.25524 | 40138 ft | 232 kts | 250° |
| 2026-04-29 19:08 | 37.47969 | -93.27243 | 40137 ft | 232 kts | 250° |
| 2026-04-29 19:09 | 37.47143 | -93.28984 | 40137 ft | 232 kts | 250° |
| 2026-04-29 19:09 | 37.46316 | -93.30727 | 40136 ft | 232 kts | 250° |
| 2026-04-29 19:09 | 37.45489 | -93.32468 | 40136 ft | 232 kts | 250° |
| 2026-04-29 19:09 | 37.44660 | -93.34211 | 40135 ft | 232 kts | 250° |
| 2026-04-29 19:10 | 37.43829 | -93.35958 | 40135 ft | 232 kts | 250° |
| 2026-04-29 19:10 | 37.43001 | -93.37699 | 40134 ft | 232 kts | 250° |
| 2026-04-29 19:10 | 37.42173 | -93.39438 | 40133 ft | 232 kts | 250° |
| 2026-04-29 19:10 | 37.41344 | -93.41179 | 40134 ft | 232 kts | 250° |
| 2026-04-29 19:11 | 37.40515 | -93.42919 | 40134 ft | 232 kts | 250° |
| 2026-04-29 19:11 | 37.39695 | -93.44637 | 40134 ft | 232 kts | 250° |
| 2026-04-29 19:11 | 37.38866 | -93.46374 | 40134 ft | 232 kts | 250° |
| 2026-04-29 19:11 | 37.38036 | -93.48114 | 40134 ft | 232 kts | 250° |
| 2026-04-29 19:12 | 37.37207 | -93.49851 | 40134 ft | 232 kts | 250° |
| 2026-04-29 19:12 | 37.36378 | -93.51584 | 40134 ft | 232 kts | 250° |
| 2026-04-29 19:12 | 37.35547 | -93.53324 | 40134 ft | 232 kts | 250° |
| 2026-04-29 19:12 | 37.34987 | -93.54495 | 40134 ft | 231 kts | 250° |
| 2026-04-29 19:13 | 37.33888 | -93.56791 | 40134 ft | 231 kts | 250° |
| 2026-04-29 19:13 | 37.33057 | -93.58526 | 40134 ft | 231 kts | 250° |
| 2026-04-29 19:13 | 37.32227 | -93.60259 | 40134 ft | 231 kts | 250° |
| 2026-04-29 19:13 | 37.31396 | -93.61992 | 40135 ft | 231 kts | 250° |
| 2026-04-29 19:14 | 37.30566 | -93.63723 | 40135 ft | 231 kts | 250° |
| 2026-04-29 19:14 | 37.29736 | -93.65454 | 40136 ft | 231 kts | 250° |
| 2026-04-29 19:14 | 37.28904 | -93.67186 | 40136 ft | 231 kts | 250° |
| 2026-04-29 19:14 | 37.28073 | -93.68915 | 40137 ft | 231 kts | 250° |
| 2026-04-29 19:15 | 37.27242 | -93.70644 | 40138 ft | 231 kts | 250° |
| 2026-04-29 19:15 | 37.26411 | -93.72373 | 40139 ft | 231 kts | 250° |
| 2026-04-29 19:15 | 37.25579 | -93.74103 | 40140 ft | 231 kts | 250° |
| 2026-04-29 19:15 | 37.24748 | -93.75828 | 40141 ft | 231 kts | 250° |
| 2026-04-29 19:16 | 37.23915 | -93.77558 | 40142 ft | 231 kts | 250° |
| 2026-04-29 19:16 | 37.23084 | -93.79282 | 40142 ft | 231 kts | 250° |
| 2026-04-29 19:16 | 37.22252 | -93.81008 | 40141 ft | 231 kts | 250° |
| 2026-04-29 19:16 | 37.21415 | -93.82744 | 40140 ft | 231 kts | 250° |
| 2026-04-29 19:17 | 37.20580 | -93.84474 | 40141 ft | 231 kts | 250° |
| 2026-04-29 19:17 | 37.19745 | -93.86202 | 40141 ft | 231 kts | 250° |
| 2026-04-29 19:17 | 37.18903 | -93.87949 | 39927 ft | 237 kts | 250° |
| 2026-04-29 19:17 | 37.18036 | -93.89746 | 39579 ft | 243 kts | 250° |
| 2026-04-29 19:18 | 37.17154 | -93.91568 | 39227 ft | 245 kts | 250° |
| 2026-04-29 19:18 | 37.16570 | -93.92772 | 38996 ft | 244 kts | 250° |
| 2026-04-29 19:18 | 37.15399 | -93.95190 | 38546 ft | 242 kts | 250° |
| 2026-04-29 19:18 | 37.14523 | -93.96998 | 38220 ft | 242 kts | 250° |
| 2026-04-29 19:19 | 37.13659 | -93.98780 | 37900 ft | 242 kts | 250° |
| 2026-04-29 19:19 | 37.12783 | -94.00587 | 37576 ft | 243 kts | 250° |
| 2026-04-29 19:19 | 37.11905 | -94.02398 | 37252 ft | 243 kts | 250° |
| 2026-04-29 19:19 | 37.11022 | -94.04215 | 36928 ft | 244 kts | 250° |
| 2026-04-29 19:20 | 37.10138 | -94.06035 | 36605 ft | 245 kts | 250° |
| 2026-04-29 19:20 | 37.09248 | -94.07867 | 36281 ft | 246 kts | 250° |
| 2026-04-29 19:20 | 37.08355 | -94.09704 | 35957 ft | 247 kts | 250° |
| 2026-04-29 19:20 | 37.07457 | -94.11550 | 35633 ft | 249 kts | 249° |
| 2026-04-29 19:21 | 37.06554 | -94.13405 | 35309 ft | 250 kts | 249° |
| 2026-04-29 19:21 | 37.05646 | -94.15269 | 34979 ft | 252 kts | 249° |
| 2026-04-29 19:21 | 37.04737 | -94.17132 | 34643 ft | 249 kts | 249° |
| 2026-04-29 19:21 | 37.03840 | -94.18972 | 34315 ft | 252 kts | 249° |
| 2026-04-29 19:22 | 37.02927 | -94.20844 | 33981 ft | 252 kts | 249° |
| 2026-04-29 19:22 | 37.02010 | -94.22721 | 33644 ft | 252 kts | 249° |
| 2026-04-29 19:22 | 37.01095 | -94.24594 | 33308 ft | 253 kts | 248° |
| 2026-04-29 19:22 | 37.00177 | -94.26473 | 32972 ft | 253 kts | 248° |
| 2026-04-29 19:23 | 36.99257 | -94.28354 | 32631 ft | 254 kts | 248° |
| 2026-04-29 19:23 | 36.98332 | -94.30244 | 32281 ft | 255 kts | 248° |
| 2026-04-29 19:23 | 36.97404 | -94.32141 | 31932 ft | 256 kts | 247° |
| 2026-04-29 19:23 | 36.96471 | -94.34045 | 31583 ft | 257 kts | 247° |
| 2026-04-29 19:24 | 36.95533 | -94.35960 | 31233 ft | 258 kts | 246° |
| 2026-04-29 19:24 | 36.94591 | -94.37880 | 30884 ft | 259 kts | 246° |
| 2026-04-29 19:24 | 36.93656 | -94.39785 | 30539 ft | 260 kts | 246° |
| 2026-04-29 19:24 | 36.92706 | -94.41719 | 30189 ft | 261 kts | 245° |
| 2026-04-29 19:25 | 36.91751 | -94.43665 | 29839 ft | 262 kts | 245° |
| 2026-04-29 19:25 | 36.90794 | -94.45610 | 29489 ft | 263 kts | 245° |
| 2026-04-29 19:25 | 36.89835 | -94.47559 | 29140 ft | 264 kts | 245° |
| 2026-04-29 19:25 | 36.88872 | -94.49517 | 28790 ft | 265 kts | 245° |
| 2026-04-29 19:26 | 36.87904 | -94.51482 | 28440 ft | 266 kts | 245° |
| 2026-04-29 19:26 | 36.86933 | -94.53452 | 28089 ft | 266 kts | 245° |
| 2026-04-29 19:26 | 36.85959 | -94.55427 | 27739 ft | 267 kts | 245° |
| 2026-04-29 19:26 | 36.84984 | -94.57404 | 27390 ft | 268 kts | 245° |
| 2026-04-29 19:27 | 36.84004 | -94.59390 | 27040 ft | 269 kts | 245° |
| 2026-04-29 19:27 | 36.83022 | -94.61378 | 26690 ft | 269 kts | 244° |
| 2026-04-29 19:27 | 36.82051 | -94.63344 | 26341 ft | 270 kts | 244° |
| 2026-04-29 19:27 | 36.81061 | -94.65346 | 25979 ft | 271 kts | 244° |
| 2026-04-29 19:28 | 36.80070 | -94.67350 | 25618 ft | 272 kts | 244° |
| 2026-04-29 19:28 | 36.79057 | -94.69395 | 25242 ft | 273 kts | 244° |
| 2026-04-29 19:28 | 36.78068 | -94.71392 | 24872 ft | 275 kts | 244° |
| 2026-04-29 19:28 | 36.77062 | -94.73421 | 24497 ft | 276 kts | 244° |
| 2026-04-29 19:29 | 36.76050 | -94.75462 | 24122 ft | 277 kts | 244° |
| 2026-04-29 19:29 | 36.75036 | -94.77504 | 23747 ft | 277 kts | 243° |
| 2026-04-29 19:29 | 36.74020 | -94.79550 | 23372 ft | 278 kts | 243° |
| 2026-04-29 19:29 | 36.73000 | -94.81603 | 22997 ft | 278 kts | 243° |
| 2026-04-29 19:30 | 36.71982 | -94.83649 | 22622 ft | 278 kts | 243° |
| 2026-04-29 19:30 | 36.70964 | -94.85696 | 22247 ft | 278 kts | 243° |
| 2026-04-29 19:30 | 36.69945 | -94.87742 | 21872 ft | 277 kts | 243° |
| 2026-04-29 19:30 | 36.68929 | -94.89782 | 21497 ft | 277 kts | 243° |
| 2026-04-29 19:31 | 36.67912 | -94.91824 | 21121 ft | 277 kts | 243° |
| 2026-04-29 19:31 | 36.66894 | -94.93864 | 20746 ft | 277 kts | 243° |
| 2026-04-29 19:31 | 36.65878 | -94.95901 | 20370 ft | 276 kts | 243° |
| 2026-04-29 19:31 | 36.64876 | -94.97907 | 20000 ft | 276 kts | 243° |
| 2026-04-29 19:32 | 36.63865 | -94.99929 | 19635 ft | 273 kts | 243° |
| 2026-04-29 19:32 | 36.62861 | -95.01936 | 19283 ft | 271 kts | 243° |
| 2026-04-29 19:32 | 36.61866 | -95.03926 | 18931 ft | 269 kts | 242° |
| 2026-04-29 19:32 | 36.60878 | -95.05901 | 18580 ft | 268 kts | 242° |
| 2026-04-29 19:33 | 36.59894 | -95.07865 | 18229 ft | 267 kts | 242° |
| 2026-04-29 19:33 | 36.58913 | -95.09823 | 17879 ft | 267 kts | 242° |
| 2026-04-29 19:33 | 36.57929 | -95.11786 | 17528 ft | 266 kts | 242° |
| 2026-04-29 19:33 | 36.56947 | -95.13742 | 17177 ft | 266 kts | 242° |
| 2026-04-29 19:34 | 36.55966 | -95.15697 | 16807 ft | 266 kts | 242° |
| 2026-04-29 19:34 | 36.54953 | -95.17714 | 16409 ft | 267 kts | 242° |
| 2026-04-29 19:34 | 36.53970 | -95.19670 | 16033 ft | 268 kts | 242° |
| 2026-04-29 19:34 | 36.52979 | -95.21640 | 15657 ft | 268 kts | 241° |
| 2026-04-29 19:35 | 36.51993 | -95.23600 | 15298 ft | 267 kts | 241° |
| 2026-04-29 19:35 | 36.51819 | -95.23945 | 15235 ft | 267 kts | 241° |
| 2026-04-29 21:47 | 36.51716 | -95.24151 | 15198 ft | 267 kts | 241° |